Time;durP1;ratioP1;P1;durP2;ratioP2;P2;SDS_P1;SDS_P2;PMS_P1;PMS_P2;Temp;Humidity;BMP_temperature;BMP_pressure;BME280_temperature;BME280_humidity;BME280_pressure;Samples;Min_cycle;Max_cycle;Signal;HPM_P1;HPM_P2
2022/02/26 00:01:13;;;;;;;19.02;2.15;;;;;;;1.90;54.03;102856.19;4977056;28;20045;-79
2022/02/26 00:03:38;;;;;;;21.35;1.83;;;;;;;2.03;53.31;102860.00;4971442;28;20038;-80
2022/02/26 00:06:04;;;;;;;26.27;2.63;;;;;;;1.71;54.47;102869.41;4961742;28;20038;-78
2022/02/26 00:08:30;;;;;;;20.17;1.17;;;;;;;1.92;54.12;102858.81;4979856;28;20033;-79
2022/02/26 00:10:55;;;;;;;12.55;1.10;;;;;;;1.91;53.80;102868.28;4998317;28;20041;-80
2022/02/26 00:13:24;;;;;;;19.90;1.58;;;;;;;1.70;54.35;102873.66;4976742;28;20038;-78
2022/02/26 00:15:50;;;;;;;17.73;0.93;;;;;;;1.87;53.84;102881.91;4979344;28;20314;-79
2022/02/26 00:18:15;;;;;;;24.65;1.70;;;;;;;1.81;54.06;102889.44;4944827;28;20245;-79
2022/02/26 00:20:41;;;;;;;23.60;1.65;;;;;;;1.79;54.21;102892.81;4980081;28;20109;-79
2022/02/26 00:23:06;;;;;;;16.50;1.58;;;;;;;1.75;53.96;102907.31;4976993;28;20037;-81
2022/02/26 00:25:32;;;;;;;15.57;1.50;;;;;;;1.80;53.91;102916.09;4980252;28;20057;-80
2022/02/26 00:27:58;;;;;;;18.15;2.45;;;;;;;1.71;54.03;102919.25;4983635;28;20054;-80
2022/02/26 00:30:23;;;;;;;11.10;0.90;;;;;;;1.67;54.19;102926.84;4977691;28;20040;-80
2022/02/26 00:32:49;;;;;;;17.25;1.70;;;;;;;1.63;54.03;102930.16;5002018;28;20041;-80
2022/02/26 00:35:15;;;;;;;10.98;1.27;;;;;;;1.63;54.43;102935.31;4975427;28;20057;-78
2022/02/26 00:37:40;;;;;;;22.55;2.63;;;;;;;1.55;55.04;102935.09;4974415;28;20108;-79
2022/02/26 00:40:07;;;;;;;17.80;2.08;;;;;;;1.39;55.17;102944.00;4994958;28;20030;-79
2022/02/26 00:42:33;;;;;;;17.65;1.83;;;;;;;1.41;55.50;102944.97;4977881;28;20283;-80
2022/02/26 00:44:59;;;;;;;13.82;1.77;;;;;;;1.63;54.42;102953.38;4978772;28;20045;-80
2022/02/26 00:47:24;;;;;;;16.63;1.35;;;;;;;1.58;54.35;102960.09;4942154;28;20046;-78
2022/02/26 00:49:50;;;;;;;18.85;1.30;;;;;;;1.57;54.10;102959.19;4988860;28;20259;-77
2022/02/26 00:52:22;;;;;;;23.75;1.63;;;;;;;1.52;54.44;102964.22;4987678;28;20503;-79
2022/02/26 00:54:48;;;;;;;15.77;1.00;;;;;;;1.52;54.45;102961.63;4980376;28;20040;-78
2022/02/26 00:57:14;;;;;;;22.33;2.30;;;;;;;1.28;55.38;102973.69;4999576;28;20375;-78
2022/02/26 00:59:40;;;;;;;28.63;3.25;;;;;;;1.57;54.64;102976.38;4980444;28;20033;-80
2022/02/26 01:02:06;;;;;;;11.85;1.23;;;;;;;1.59;54.42;102972.13;5000164;28;20044;-80
2022/02/26 01:04:34;;;;;;;11.50;1.25;;;;;;;1.60;54.37;102974.78;4981944;28;20021;-79
2022/02/26 01:06:59;;;;;;;17.65;1.55;;;;;;;1.62;54.56;102982.56;4980578;28;20060;-79
2022/02/26 01:09:25;;;;;;;12.45;1.23;;;;;;;1.56;54.66;102979.78;4976018;28;20034;-79
2022/02/26 01:11:51;;;;;;;15.40;1.15;;;;;;;1.38;55.42;102977.47;4964237;28;20041;-79
2022/02/26 01:14:16;;;;;;;17.55;2.00;;;;;;;1.42;54.64;102987.97;4951494;28;20041;-79
2022/02/26 01:16:42;;;;;;;21.10;2.22;;;;;;;1.44;54.87;102994.03;4982203;28;20158;-79
2022/02/26 01:19:08;;;;;;;9.65;1.15;;;;;;;1.45;54.29;102997.47;4979004;28;20041;-80
2022/02/26 01:21:34;;;;;;;12.02;1.77;;;;;;;1.42;54.44;103000.84;5005025;28;20040;-78
2022/02/26 01:24:00;;;;;;;20.10;1.67;;;;;;;1.36;54.71;103000.59;4984926;28;20037;-77
2022/02/26 01:26:26;;;;;;;11.48;0.73;;;;;;;1.36;54.74;103010.03;4982796;28;20084;-79
2022/02/26 01:28:52;;;;;;;18.58;1.88;;;;;;;1.26;54.98;103009.75;4980207;28;20033;-79
2022/02/26 01:31:17;;;;;;;12.02;1.73;;;;;;;1.20;55.74;103009.53;4979832;28;20601;-79
2022/02/26 01:33:44;;;;;;;22.40;1.98;;;;;;;1.24;55.66;103010.53;4980459;28;20046;-79
2022/02/26 01:36:11;;;;;;;19.95;1.05;;;;;;;1.26;55.23;103019.16;4981845;28;20068;-79
2022/02/26 01:38:37;;;;;;;21.95;2.28;;;;;;;1.23;55.53;103024.22;4962893;28;20050;-79
2022/02/26 01:41:04;;;;;;;15.75;2.00;;;;;;;1.27;55.29;103026.06;5000689;28;20033;-78
2022/02/26 01:43:29;;;;;;;10.10;1.10;;;;;;;1.22;55.27;103019.91;4961379;28;20045;-78
2022/02/26 01:45:55;;;;;;;23.52;2.10;;;;;;;1.22;55.06;103022.47;4971249;28;20037;-80
2022/02/26 01:48:21;;;;;;;12.10;1.45;;;;;;;1.13;55.24;103017.88;4975846;28;20607;-76
2022/02/26 01:50:46;;;;;;;21.60;1.17;;;;;;;1.03;56.01;103021.81;5005259;28;20099;-77
2022/02/26 01:53:13;;;;;;;9.95;1.52;;;;;;;1.09;55.08;103024.63;4982367;28;20455;-77
2022/02/26 01:55:40;;;;;;;11.80;0.93;;;;;;;1.04;54.78;103030.47;4978504;28;20029;-79
2022/02/26 01:58:06;;;;;;;5.18;1.58;;;;;;;1.00;55.32;103028.59;4979656;28;20100;-78
2022/02/26 02:00:32;;;;;;;11.98;1.83;;;;;;;1.00;55.56;103034.63;5002292;28;20026;-77
2022/02/26 02:02:57;;;;;;;10.35;1.08;;;;;;;0.97;55.13;103037.09;4978855;28;20129;-78
2022/02/26 02:05:30;;;;;;;8.43;1.17;;;;;;;0.93;54.90;103045.53;4978041;28;20034;-77
2022/02/26 02:07:57;;;;;;;13.70;1.23;;;;;;;0.87;54.65;103043.59;4982701;28;20056;-78
2022/02/26 02:10:23;;;;;;;16.50;2.25;;;;;;;0.77;54.66;103048.34;4978313;28;20055;-79
2022/02/26 02:12:49;;;;;;;17.30;1.38;;;;;;;0.75;54.63;103052.56;4979826;28;20431;-77
2022/02/26 02:15:15;;;;;;;12.77;0.95;;;;;;;0.67;55.48;103053.19;4978419;28;20038;-78
2022/02/26 02:17:42;;;;;;;18.40;1.35;;;;;;;0.66;54.95;103056.59;4980032;28;20753;-78
2022/02/26 02:20:08;;;;;;;14.85;1.35;;;;;;;0.64;55.31;103058.22;5002903;28;20129;-78
2022/02/26 02:22:34;;;;;;;11.82;1.70;;;;;;;0.65;55.27;103065.13;4999494;28;20069;-77
2022/02/26 02:25:03;;;;;;;15.02;1.30;;;;;;;0.65;55.59;103059.97;5002361;28;20060;-77
2022/02/26 02:27:28;;;;;;;14.35;1.27;;;;;;;0.72;55.52;103049.91;4979823;28;20090;-80
2022/02/26 02:29:54;;;;;;;13.50;1.73;;;;;;;0.76;55.32;103062.94;4990349;28;20065;-79
2022/02/26 02:32:20;;;;;;;9.32;0.90;;;;;;;0.79;55.29;103062.16;4980383;28;20477;-78
2022/02/26 02:34:45;;;;;;;5.03;0.88;;;;;;;0.78;54.93;103068.16;4998841;28;20514;-79
2022/02/26 02:37:11;;;;;;;19.63;2.17;;;;;;;0.63;55.75;103077.06;4985867;28;20367;-77
2022/02/26 02:39:41;;;;;;;6.68;1.80;;;;;;;0.65;55.01;103080.56;4997591;28;20033;-79
2022/02/26 02:42:07;;;;;;;10.73;1.00;;;;;;;0.57;54.92;103073.38;4988084;28;20216;-77
2022/02/26 02:44:33;;;;;;;6.38;0.98;;;;;;;0.47;54.76;103074.75;4981142;28;20120;-78
2022/02/26 02:46:58;;;;;;;10.18;1.40;;;;;;;0.37;54.70;103082.94;4980806;28;20095;-77
2022/02/26 02:49:24;;;;;;;6.57;0.77;;;;;;;0.36;54.70;103083.75;4987877;28;20035;-77
2022/02/26 02:51:50;;;;;;;6.68;0.80;;;;;;;0.37;54.52;103073.53;4991647;28;20045;-77
2022/02/26 02:54:15;;;;;;;9.07;0.90;;;;;;;0.26;54.66;103065.41;4987785;28;20416;-80
2022/02/26 02:56:41;;;;;;;13.38;1.23;;;;;;;0.21;55.25;103077.22;4978752;28;20052;-77
2022/02/26 02:59:06;;;;;;;5.43;0.73;;;;;;;0.28;54.83;103075.75;4982540;28;20053;-78
2022/02/26 03:01:32;;;;;;;24.33;3.13;;;;;;;0.22;55.10;103078.09;4987126;28;20201;-78
2022/02/26 03:03:58;;;;;;;4.60;0.65;;;;;;;0.16;54.92;103093.28;4981530;28;20137;-80
2022/02/26 03:06:25;;;;;;;12.00;0.70;;;;;;;0.01;54.54;103091.88;4979481;28;20026;-79
2022/02/26 03:08:51;;;;;;;7.72;1.17;;;;;;;-0.10;54.95;103095.72;4998897;28;20910;-80
2022/02/26 03:11:19;;;;;;;7.93;1.58;;;;;;;-0.15;55.29;103087.81;4979429;28;20040;-79
2022/02/26 03:13:45;;;;;;;7.72;0.50;;;;;;;-0.19;55.34;103096.22;4972791;28;20730;-79
2022/02/26 03:16:11;;;;;;;7.85;0.73;;;;;;;-0.21;55.44;103102.97;4984278;28;20407;-78
2022/02/26 03:18:39;;;;;;;6.38;0.60;;;;;;;-0.16;55.17;103092.88;4983927;28;20033;-79
2022/02/26 03:21:05;;;;;;;9.13;1.00;;;;;;;-0.19;55.20;103106.50;4964326;28;20574;-78
2022/02/26 03:23:30;;;;;;;15.93;2.30;;;;;;;-0.13;55.42;103095.56;4980597;28;20030;-77
2022/02/26 03:25:56;;;;;;;12.77;1.13;;;;;;;-0.04;55.16;103095.94;4979340;28;20397;-80
2022/02/26 03:28:22;;;;;;;12.88;1.35;;;;;;;-0.08;55.03;103098.31;4987916;28;20124;-79
2022/02/26 03:30:49;;;;;;;10.73;1.90;;;;;;;-0.00;55.10;103104.66;4975722;28;20042;-79
2022/02/26 03:33:15;;;;;;;11.50;1.58;;;;;;;-0.03;55.17;103099.41;4988568;28;20034;-79
2022/02/26 03:35:42;;;;;;;8.18;1.17;;;;;;;0.06;55.14;103108.34;4979078;28;20031;-79
2022/02/26 03:38:08;;;;;;;7.22;0.63;;;;;;;0.10;54.84;103111.94;4969890;28;20041;-80
2022/02/26 03:40:34;;;;;;;7.43;0.45;;;;;;;0.08;54.92;103105.84;4989953;28;20048;-80
2022/02/26 03:43:00;;;;;;;6.63;0.68;;;;;;;0.04;54.87;103107.41;4980533;28;20038;-76
2022/02/26 03:45:25;;;;;;;7.68;0.90;;;;;;;-0.04;54.65;103111.34;4979994;28;20099;-77
2022/02/26 03:47:51;;;;;;;6.32;0.95;;;;;;;-0.16;54.63;103122.03;4977045;28;20033;-78
2022/02/26 03:50:17;;;;;;;8.02;0.73;;;;;;;-0.14;54.26;103115.25;4976622;28;20041;-77
2022/02/26 03:52:43;;;;;;;8.30;1.17;;;;;;;-0.23;54.84;103117.47;4979173;28;20136;-77
2022/02/26 03:55:09;;;;;;;7.65;0.50;;;;;;;-0.26;54.52;103116.44;4979003;28;20041;-78
2022/02/26 03:57:35;;;;;;;8.00;0.85;;;;;;;-0.33;54.91;103112.75;4938477;28;20048;-80
2022/02/26 04:00:04;;;;;;;11.65;1.33;;;;;;;-0.49;55.07;103120.63;4995636;28;20026;-78
2022/02/26 04:02:38;;;;;;;7.95;0.77;;;;;;;-0.52;55.52;103136.81;4995020;28;20093;-77
2022/02/26 04:05:04;;;;;;;12.27;1.27;;;;;;;-0.52;55.41;103135.94;4978487;28;20063;-79
2022/02/26 04:07:29;;;;;;;14.50;2.05;;;;;;;-0.49;55.64;103136.06;4995488;28;20073;-79
2022/02/26 04:09:55;;;;;;;14.48;1.10;;;;;;;-0.46;55.69;103143.88;4978914;28;20042;-78
2022/02/26 04:12:20;;;;;;;13.00;0.70;;;;;;;-0.47;55.30;103142.13;4975303;28;20097;-78
2022/02/26 04:14:46;;;;;;;4.90;0.52;;;;;;;-0.46;54.42;103141.31;4980091;28;20034;-78
2022/02/26 04:17:11;;;;;;;11.43;1.02;;;;;;;-0.55;54.79;103141.78;4973890;28;20043;-77
2022/02/26 04:19:37;;;;;;;5.28;0.65;;;;;;;-0.59;54.47;103148.50;5002022;28;20357;-78
2022/02/26 04:22:03;;;;;;;5.95;0.55;;;;;;;-0.70;54.82;103152.31;4980741;28;20026;-78
2022/02/26 04:24:28;;;;;;;10.70;1.35;;;;;;;-0.75;54.38;103153.78;4996740;28;20040;-79
2022/02/26 04:26:54;;;;;;;12.95;0.80;;;;;;;-0.81;54.75;103159.53;4982976;28;20044;-76
2022/02/26 04:29:19;;;;;;;5.03;0.50;;;;;;;-0.86;54.37;103162.69;4988159;28;20038;-79
2022/02/26 04:31:45;;;;;;;6.25;0.80;;;;;;;-1.00;54.96;103162.09;4968831;28;20184;-80
2022/02/26 04:34:10;;;;;;;7.80;0.77;;;;;;;-0.97;54.79;103172.53;4964322;28;20482;-77
2022/02/26 04:36:36;;;;;;;12.27;1.80;;;;;;;-1.06;56.04;103178.13;4979404;28;20037;-80
2022/02/26 04:39:03;;;;;;;10.75;0.88;;;;;;;-1.06;55.21;103182.31;4978494;28;20034;-78
2022/02/26 04:41:29;;;;;;;4.82;0.50;;;;;;;-1.12;55.36;103193.19;4978051;28;20041;-78
2022/02/26 04:43:55;;;;;;;11.25;0.73;;;;;;;-1.04;55.43;103197.03;4952221;28;20072;-77
2022/02/26 04:46:21;;;;;;;9.55;0.65;;;;;;;-0.97;54.86;103211.03;4975979;28;20563;-78
2022/02/26 04:48:47;;;;;;;6.18;0.30;;;;;;;-0.98;54.70;103206.69;5002715;28;20050;-78
2022/02/26 04:51:13;;;;;;;7.72;1.30;;;;;;;-1.07;54.99;103212.25;4995442;28;20040;-79
2022/02/26 04:53:39;;;;;;;7.63;1.08;;;;;;;-0.99;54.61;103213.50;4983045;28;20045;-79
2022/02/26 04:56:06;;;;;;;13.38;1.42;;;;;;;-1.02;54.59;103209.91;4980555;28;20017;-79
2022/02/26 04:58:32;;;;;;;5.07;1.15;;;;;;;-1.16;55.45;103222.09;4977744;28;20096;-78
2022/02/26 05:00:58;;;;;;;5.20;1.00;;;;;;;-1.12;55.28;103221.44;4979626;28;20045;-77
2022/02/26 05:03:24;;;;;;;8.40;1.00;;;;;;;-1.08;55.29;103223.34;4995497;28;20113;-76
2022/02/26 05:05:50;;;;;;;3.75;0.68;;;;;;;-1.04;55.76;103220.13;4981780;28;20026;-78
2022/02/26 05:08:15;;;;;;;5.53;0.40;;;;;;;-1.04;55.52;103232.06;4962036;28;20069;-79
2022/02/26 05:10:41;;;;;;;6.90;0.38;;;;;;;-1.06;55.79;103234.59;4976390;28;20044;-79
2022/02/26 05:13:06;;;;;;;3.30;1.13;;;;;;;-0.99;55.70;103236.63;4977115;28;20046;-78
2022/02/26 05:15:32;;;;;;;8.57;0.55;;;;;;;-0.98;55.66;103234.91;4994889;28;20031;-78
2022/02/26 05:17:57;;;;;;;17.65;0.63;;;;;;;-0.99;55.19;103236.63;4983070;28;20123;-79
2022/02/26 05:20:23;;;;;;;5.57;0.40;;;;;;;-1.06;54.99;103242.28;4977524;28;20030;-79
2022/02/26 05:22:49;;;;;;;4.07;0.20;;;;;;;-1.10;54.80;103245.47;4976577;28;20079;-78
2022/02/26 05:25:14;;;;;;;8.63;0.35;;;;;;;-1.17;55.11;103251.13;4976312;28;20268;-77
2022/02/26 05:27:40;;;;;;;6.70;0.70;;;;;;;-1.24;55.70;103254.19;4965835;28;20061;-79
2022/02/26 05:30:08;;;;;;;3.55;0.40;;;;;;;-1.16;56.05;103255.44;4977004;28;20052;-78
2022/02/26 05:32:33;;;;;;;5.95;0.47;;;;;;;-1.01;55.50;103261.34;4973921;28;20093;-79
2022/02/26 05:34:59;;;;;;;2.40;0.50;;;;;;;-1.07;55.30;103261.00;4976958;28;20046;-81
2022/02/26 05:37:24;;;;;;;6.85;1.42;;;;;;;-1.00;54.94;103264.78;4976937;28;20579;-78
2022/02/26 05:39:50;;;;;;;6.55;0.80;;;;;;;-1.10;54.77;103266.00;4974564;28;20751;-82
2022/02/26 05:42:16;;;;;;;4.80;0.47;;;;;;;-1.27;54.84;103269.47;4987143;28;20092;-81
2022/02/26 05:44:42;;;;;;;7.65;0.90;;;;;;;-1.42;54.74;103280.75;4994959;28;20064;-82
2022/02/26 05:47:08;;;;;;;21.33;1.67;;;;;;;-1.44;55.13;103287.50;4978354;28;20058;-84
2022/02/26 05:49:33;;;;;;;8.30;0.47;;;;;;;-1.39;55.06;103286.03;4986460;28;20030;-79
2022/02/26 05:51:59;;;;;;;7.45;0.52;;;;;;;-1.36;54.65;103287.00;4959545;28;20095;-81
2022/02/26 05:54:25;;;;;;;4.40;0.75;;;;;;;-1.55;54.81;103295.44;4975626;28;20034;-79
2022/02/26 05:56:50;;;;;;;9.68;0.85;;;;;;;-1.64;55.16;103298.47;4989469;28;20041;-80
2022/02/26 05:59:16;;;;;;;5.63;0.57;;;;;;;-1.72;55.47;103304.88;4984049;28;20121;-83
2022/02/26 06:01:41;;;;;;;6.40;0.50;;;;;;;-1.76;55.85;103302.97;5005306;28;20033;-79
2022/02/26 06:04:07;;;;;;;7.22;0.85;;;;;;;-1.74;55.74;103311.63;4990991;28;20578;-82
2022/02/26 06:06:33;;;;;;;9.25;1.00;;;;;;;-1.63;55.75;103310.47;4991480;28;20121;-81
2022/02/26 06:08:58;;;;;;;4.18;0.50;;;;;;;-1.61;55.41;103304.63;5012418;28;20057;-78
2022/02/26 06:11:24;;;;;;;2.83;0.85;;;;;;;-1.66;55.25;103323.16;4992205;28;20321;-80
2022/02/26 06:13:50;;;;;;;8.85;1.30;;;;;;;-1.71;54.97;103324.59;4986751;28;20049;-83
2022/02/26 06:16:16;;;;;;;7.93;0.60;;;;;;;-1.67;54.97;103329.06;4987093;28;20109;-81
2022/02/26 06:18:42;;;;;;;6.43;0.50;;;;;;;-1.77;54.93;103326.88;4987003;28;20065;-85
2022/02/26 06:21:08;;;;;;;5.25;0.65;;;;;;;-1.86;54.93;103319.59;5004693;28;20780;-85
2022/02/26 06:23:33;;;;;;;7.70;1.10;;;;;;;-1.93;54.91;103338.91;4987040;28;20034;-85
2022/02/26 06:25:59;;;;;;;11.95;0.95;;;;;;;-2.04;55.21;103333.22;4990798;28;20073;-85
2022/02/26 06:28:24;;;;;;;5.50;1.13;;;;;;;-1.98;55.74;103332.63;5011105;28;20056;-84
2022/02/26 06:30:50;;;;;;;7.20;0.77;;;;;;;-1.76;55.35;103344.00;4989208;28;20033;-83
2022/02/26 06:33:16;;;;;;;7.18;1.13;;;;;;;-1.76;55.41;103341.44;4985489;28;20129;-83
2022/02/26 06:35:42;;;;;;;4.13;0.32;;;;;;;-1.76;55.42;103344.00;5010866;28;20118;-82
2022/02/26 06:38:08;;;;;;;12.43;0.70;;;;;;;-1.68;55.96;103352.97;5006938;28;20626;-81
2022/02/26 06:40:33;;;;;;;9.80;0.70;;;;;;;-1.49;55.86;103350.50;4985918;28;20096;-82
2022/02/26 06:42:59;;;;;;;9.10;0.63;;;;;;;-1.43;56.33;103345.69;4985582;28;20125;-81
2022/02/26 06:45:25;;;;;;;4.78;0.70;;;;;;;-1.24;56.00;103354.28;4998258;28;20034;-82
2022/02/26 06:47:50;;;;;;;6.20;0.40;;;;;;;-1.15;56.04;103357.31;4985801;28;20310;-81
2022/02/26 06:50:16;;;;;;;10.75;1.25;;;;;;;-0.96;55.33;103346.28;5007136;28;20034;-80
2022/02/26 06:52:42;;;;;;;7.22;1.02;;;;;;;-0.85;55.49;103347.66;4984142;28;20034;-81
2022/02/26 06:55:08;;;;;;;8.63;0.80;;;;;;;-0.76;55.37;103352.34;5000628;28;20031;-79
2022/02/26 06:57:33;;;;;;;13.05;0.93;;;;;;;-0.71;55.10;103357.69;4987894;28;20045;-82
2022/02/26 06:59:59;;;;;;;5.63;0.80;;;;;;;-0.66;55.14;103358.78;4990320;28;20101;-82
2022/02/26 07:02:24;;;;;;;11.48;1.48;;;;;;;-0.53;54.94;103361.09;4976846;28;20034;-84
2022/02/26 07:04:50;;;;;;;12.38;1.77;;;;;;;-0.41;55.04;103363.38;4982272;28;20638;-84
2022/02/26 07:07:15;;;;;;;12.00;2.78;;;;;;;-0.26;54.65;103366.66;4984546;28;20042;-84
2022/02/26 07:09:42;;;;;;;19.15;2.33;;;;;;;-0.03;54.49;103377.09;5008473;28;20488;-86
2022/02/26 07:12:09;;;;;;;10.63;2.33;;;;;;;0.10;54.36;103374.25;4980115;28;20032;-85
2022/02/26 07:14:35;;;;;;;22.20;3.03;;;;;;;0.17;54.09;103378.84;4996338;28;20030;-82
2022/02/26 07:17:01;;;;;;;7.97;1.77;;;;;;;0.42;54.00;103391.03;4979989;28;20480;-87
2022/02/26 07:19:26;;;;;;;11.65;2.28;;;;;;;0.72;53.89;103389.69;4985277;28;20111;-83
2022/02/26 07:21:52;;;;;;;10.10;2.28;;;;;;;0.94;53.12;103387.19;4999893;28;20064;-85
2022/02/26 07:24:18;;;;;;;5.25;1.02;;;;;;;1.17;53.07;103392.38;5000809;28;20057;-86
2022/02/26 07:26:43;;;;;;;7.57;1.25;;;;;;;1.38;53.05;103390.66;5000804;28;20823;-86
2022/02/26 07:29:09;;;;;;;8.32;1.95;;;;;;;1.47;52.51;103391.03;4996792;28;20037;-82
2022/02/26 07:31:35;;;;;;;9.60;1.65;;;;;;;2.23;53.31;103392.09;4997741;28;20393;-81
2022/02/26 07:34:01;;;;;;;5.88;1.27;;;;;;;4.26;52.22;103397.53;4996014;28;20072;-83
2022/02/26 07:36:26;;;;;;;10.48;1.92;;;;;;;6.77;46.94;103396.94;4997824;28;20091;-83
2022/02/26 07:38:52;;;;;;;6.82;1.27;;;;;;;8.88;42.28;103392.56;4993710;28;20132;-83
2022/02/26 07:41:17;;;;;;;5.22;1.90;;;;;;;9.90;41.41;103398.31;4975636;28;20132;-82
2022/02/26 07:43:43;;;;;;;8.07;1.17;;;;;;;10.23;39.80;103397.53;4973600;28;20043;-83
2022/02/26 07:46:09;;;;;;;10.00;1.63;;;;;;;9.74;36.25;103398.22;4969181;28;20034;-83
2022/02/26 07:48:35;;;;;;;11.18;2.42;;;;;;;10.52;38.61;103405.41;4977504;28;20468;-82
2022/02/26 07:51:00;;;;;;;9.88;2.03;;;;;;;11.42;35.08;103396.59;4993482;28;20129;-84
2022/02/26 07:53:26;;;;;;;20.73;3.05;;;;;;;11.02;33.03;103403.69;4981018;28;20099;-80
2022/02/26 07:55:52;;;;;;;11.13;2.15;;;;;;;11.36;32.21;103401.84;4983408;28;20507;-80
2022/02/26 07:58:18;;;;;;;11.07;1.85;;;;;;;12.38;32.74;103415.34;4980352;28;20132;-79
2022/02/26 08:00:43;;;;;;;5.68;1.25;;;;;;;13.19;31.11;103407.66;4985005;28;20140;-79
2022/02/26 08:03:09;;;;;;;9.77;1.05;;;;;;;14.10;27.96;103405.66;4980240;28;20484;-78
2022/02/26 08:05:35;;;;;;;10.25;1.13;;;;;;;14.02;28.98;103417.16;4980795;28;20064;-80
2022/02/26 08:08:00;;;;;;;7.47;1.13;;;;;;;13.38;27.98;103422.31;4986907;28;20354;-79
2022/02/26 08:10:27;;;;;;;8.48;2.05;;;;;;;14.14;28.20;103420.50;4993050;28;20034;-81
2022/02/26 08:12:54;;;;;;;9.52;1.58;;;;;;;14.33;27.22;103422.84;4977960;28;20614;-84
2022/02/26 08:15:21;;;;;;;15.80;1.00;;;;;;;14.55;26.11;103429.53;4980856;28;20033;-78
2022/02/26 08:17:47;;;;;;;13.68;1.48;;;;;;;14.87;26.39;103424.59;4992185;28;20056;-79
2022/02/26 08:20:22;;;;;;;9.02;1.10;;;;;;;15.49;25.64;103424.34;4987943;28;20030;-78
2022/02/26 08:22:48;;;;;;;5.47;0.70;;;;;;;16.22;24.69;103437.72;4959316;28;20125;-80
2022/02/26 08:25:13;;;;;;;7.68;0.88;;;;;;;16.80;24.68;103441.59;4975640;28;20034;-82
2022/02/26 08:27:40;;;;;;;7.10;1.10;;;;;;;16.79;24.09;103439.84;4988392;28;20045;-76
2022/02/26 08:30:09;;;;;;;8.73;1.48;;;;;;;16.53;23.85;103437.84;4985214;28;20061;-81
2022/02/26 08:32:35;;;;;;;7.95;1.55;;;;;;;16.72;22.97;103437.38;4977001;28;20050;-78
2022/02/26 08:35:02;;;;;;;10.30;1.58;;;;;;;16.55;24.06;103445.72;5006048;28;20328;-76
2022/02/26 08:37:32;;;;;;;13.02;1.17;;;;;;;16.64;23.42;103456.03;4975256;28;20392;-82
2022/02/26 08:40:03;;;;;;;10.55;1.55;;;;;;;16.95;23.74;103460.56;4989887;28;20476;-86
2022/02/26 08:42:29;;;;;;;6.00;1.00;;;;;;;16.72;24.01;103459.38;4984358;28;20045;-85
2022/02/26 08:44:56;;;;;;;10.77;1.13;;;;;;;16.87;24.28;103460.78;4983937;28;20030;-86
2022/02/26 08:47:22;;;;;;;9.80;1.27;;;;;;;16.44;23.91;103463.59;4981816;28;20045;-82
2022/02/26 08:49:49;;;;;;;14.15;1.10;;;;;;;15.91;24.39;103462.13;4985620;28;20452;-86
2022/02/26 08:52:15;;;;;;;10.82;2.17;;;;;;;15.31;25.20;103462.47;4986007;28;20057;-81
2022/02/26 08:54:41;;;;;;;15.48;1.98;;;;;;;16.26;24.34;103465.75;4991565;28;20038;-83
2022/02/26 08:57:07;;;;;;;10.52;1.77;;;;;;;16.38;24.37;103472.53;4985039;28;20427;-82
2022/02/26 08:59:34;;;;;;;11.40;1.33;;;;;;;15.94;25.76;103474.38;4990574;28;20026;-81
2022/02/26 09:02:00;;;;;;;8.20;1.83;;;;;;;15.33;25.01;103476.47;4990335;28;20040;-77
2022/02/26 09:04:26;;;;;;;16.25;2.20;;;;;;;14.72;26.92;103471.38;4973513;28;20239;-79
2022/02/26 09:06:52;;;;;;;10.38;1.50;;;;;;;14.65;27.27;103469.72;4993269;28;20029;-79
2022/02/26 09:09:18;;;;;;;11.13;1.13;;;;;;;14.80;27.08;103486.16;4977427;28;20035;-83
2022/02/26 09:11:44;;;;;;;7.88;0.95;;;;;;;14.62;26.28;103480.31;4972955;28;20025;-79
2022/02/26 09:14:10;;;;;;;12.02;2.05;;;;;;;14.05;27.64;103475.81;4966914;28;20144;-80
2022/02/26 09:16:35;;;;;;;11.43;1.30;;;;;;;12.72;27.90;103479.84;4976004;28;20029;-82
2022/02/26 09:19:01;;;;;;;12.52;1.38;;;;;;;12.41;29.30;103477.41;4998139;28;20038;-81
2022/02/26 09:21:27;;;;;;;13.32;1.17;;;;;;;12.25;30.14;103479.25;4988666;28;20112;-80
2022/02/26 09:23:52;;;;;;;8.15;1.00;;;;;;;11.78;30.45;103483.81;4980728;28;20065;-79
2022/02/26 09:26:18;;;;;;;10.52;1.13;;;;;;;11.61;30.53;103475.97;4977637;28;20408;-79
2022/02/26 09:28:44;;;;;;;8.07;0.93;;;;;;;11.45;30.79;103485.63;4995670;28;20038;-79
2022/02/26 09:31:11;;;;;;;3.55;0.70;;;;;;;11.02;31.58;103479.59;4981400;28;20161;-79
2022/02/26 09:33:38;;;;;;;8.35;0.60;;;;;;;11.31;30.02;103482.16;4962544;28;20046;-79
2022/02/26 09:36:04;;;;;;;8.32;0.95;;;;;;;11.53;30.90;103482.09;5004558;28;20077;-78
2022/02/26 09:38:31;;;;;;;10.95;0.95;;;;;;;11.57;30.93;103478.59;4985333;28;20049;-78
2022/02/26 09:40:58;;;;;;;12.07;0.80;;;;;;;11.22;31.28;103487.44;5007593;28;20049;-79
2022/02/26 09:43:25;;;;;;;5.20;0.77;;;;;;;11.43;30.10;103482.13;4981408;28;20206;-80
2022/02/26 09:45:53;;;;;;;6.20;1.08;;;;;;;10.57;31.11;103495.22;4980403;28;20285;-80
2022/02/26 09:48:19;;;;;;;15.60;1.50;;;;;;;9.43;32.95;103503.38;4999511;28;20117;-78
2022/02/26 09:50:45;;;;;;;11.05;0.65;;;;;;;9.95;32.87;103495.91;4980905;28;20231;-78
2022/02/26 09:53:11;;;;;;;7.43;0.73;;;;;;;10.30;31.20;103496.00;4994342;28;20096;-79
2022/02/26 09:55:38;;;;;;;7.53;0.73;;;;;;;9.85;32.11;103504.53;4988529;28;20042;-78
2022/02/26 09:58:05;;;;;;;4.55;0.55;;;;;;;9.71;32.69;103501.84;4981323;28;20171;-80
2022/02/26 10:00:31;;;;;;;4.82;0.93;;;;;;;9.65;32.48;103510.50;4988470;28;20128;-76
2022/02/26 10:02:57;;;;;;;6.10;0.68;;;;;;;10.54;31.54;103508.28;4976378;28;20081;-78
2022/02/26 10:05:23;;;;;;;14.00;1.48;;;;;;;9.90;31.57;103503.72;4992259;28;20116;-80
2022/02/26 10:07:52;;;;;;;7.60;0.50;;;;;;;9.68;31.65;103514.84;4977731;28;20307;-80
2022/02/26 10:10:21;;;;;;;8.98;0.50;;;;;;;9.23;32.95;103522.41;4983393;28;20857;-78
2022/02/26 10:12:55;;;;;;;7.65;0.73;;;;;;;8.98;33.71;103518.69;5008154;28;20091;-78
2022/02/26 10:15:21;;;;;;;8.30;1.00;;;;;;;8.87;34.08;103521.19;4983989;28;20505;-78
2022/02/26 10:17:57;;;;;;;13.23;1.05;;;;;;;8.76;34.04;103520.22;5005280;28;20095;-80
2022/02/26 10:20:23;;;;;;;4.63;0.80;;;;;;;8.74;33.89;103519.38;4984622;28;20559;-78
2022/02/26 10:22:54;;;;;;;12.77;1.30;;;;;;;8.46;34.11;103518.16;4993402;28;20049;-80
2022/02/26 10:25:28;;;;;;;6.00;0.43;;;;;;;8.47;33.50;103515.56;4984536;28;20037;-77
2022/02/26 10:28:00;;;;;;;4.57;0.50;;;;;;;8.98;33.46;103519.59;4989221;28;20038;-78
2022/02/26 10:30:30;;;;;;;9.45;1.65;;;;;;;9.84;32.39;103514.13;4982996;28;20030;-78
2022/02/26 10:33:11;;;;;;;10.90;0.68;;;;;;;10.91;30.67;103518.84;4977910;28;20062;-80
2022/02/26 10:35:48;;;;;;;4.32;0.88;;;;;;;11.72;30.02;103510.00;4981966;28;20398;-78
2022/02/26 10:38:23;;;;;;;6.22;0.40;;;;;;;11.65;28.37;103510.91;4964473;28;20962;-80
2022/02/26 10:40:53;;;;;;;5.30;0.65;;;;;;;11.35;27.62;103512.72;4975447;28;20030;-77
2022/02/26 10:43:44;;;;;;;8.85;0.40;;;;;;;11.41;26.96;103514.44;4982891;28;20041;-77
2022/02/26 10:46:28;;;;;;;5.80;1.00;;;;;;;11.77;28.34;103510.88;4985386;28;20037;-77
2022/02/26 10:48:59;;;;;;;11.32;0.98;;;;;;;11.94;26.17;103513.47;4984779;28;20038;-77
2022/02/26 10:51:33;;;;;;;2.78;0.40;;;;;;;11.77;28.08;103516.13;4988426;28;20040;-79
2022/02/26 10:54:02;;;;;;;5.72;0.50;;;;;;;12.24;26.79;103517.69;4997443;28;20042;-78
2022/02/26 10:56:34;;;;;;;12.63;0.75;;;;;;;11.64;27.66;103517.00;4985068;28;20093;-82
2022/02/26 10:59:00;;;;;;;9.73;1.33;;;;;;;11.09;28.18;103517.97;4990074;28;20087;-80
2022/02/26 11:01:26;;;;;;;6.28;0.75;;;;;;;10.24;29.27;103518.66;4990835;28;20307;-79
2022/02/26 11:03:58;;;;;;;5.00;0.43;;;;;;;9.79;29.38;103524.56;5003691;28;20026;-79
2022/02/26 11:06:24;;;;;;;;;;;;;;;9.39;29.38;103513.81;4984823;28;20044;-79
2022/02/26 11:08:51;;;;;;;7.90;0.50;;;;;;;9.41;30.87;103513.84;4972306;28;19921;-79
2022/02/26 11:11:19;;;;;;;4.13;0.60;;;;;;;9.18;30.07;103511.03;4984507;28;20449;-79
2022/02/26 11:13:48;;;;;;;12.65;0.70;;;;;;;8.70;30.84;103507.13;4978996;28;20061;-79
2022/02/26 11:16:14;;;;;;;12.60;0.80;;;;;;;8.69;31.71;103505.34;4991582;28;20518;-79
2022/02/26 11:18:43;;;;;;;11.70;0.73;;;;;;;8.66;31.46;103505.34;4999983;28;20551;-80
2022/02/26 11:21:11;;;;;;;12.65;0.95;;;;;;;8.59;32.57;103524.38;4982952;28;20447;-78